createdAt,value
2022-10-22T00:01:11.059Z,84.60
2022-10-22T00:03:44.451Z,84.40
2022-10-22T00:06:13.816Z,84.50
2022-10-22T00:08:44.920Z,84.70
2022-10-22T00:11:17.893Z,84.58
2022-10-22T00:13:49.318Z,84.54
2022-10-22T00:16:20.390Z,84.36
2022-10-22T00:18:51.505Z,84.34
2022-10-22T00:21:22.577Z,84.25
2022-10-22T00:23:53.713Z,84.46
2022-10-22T00:26:25.142Z,84.10
2022-10-22T00:28:56.603Z,84.05
2022-10-22T00:31:27.656Z,84.17
2022-10-22T00:33:58.668Z,84.27
2022-10-22T00:36:28.065Z,84.05
2022-10-22T00:38:58.809Z,83.98
2022-10-22T00:41:28.297Z,83.90
2022-10-22T00:44:02.174Z,84.04
2022-10-22T00:46:33.365Z,84.06
2022-10-22T00:49:04.056Z,83.82
2022-10-22T00:51:36.917Z,83.90
2022-10-22T00:54:10.065Z,83.98
2022-10-22T00:56:40.955Z,84.10
2022-10-22T00:59:10.563Z,84.13
2022-10-22T01:01:39.925Z,84.12
2022-10-22T01:04:11.087Z,84.13
2022-10-22T01:06:42.553Z,84.06
2022-10-22T01:09:23.124Z,83.77
2022-10-22T01:12:11.351Z,83.41
2022-10-22T01:14:54.709Z,83.39
2022-10-22T01:17:33.170Z,83.38
2022-10-22T01:20:15.432Z,83.35
2022-10-22T01:22:55.460Z,83.38
2022-10-22T01:25:35.724Z,83.46
2022-10-22T01:28:19.236Z,83.71
2022-10-22T01:30:50.490Z,83.67
2022-10-22T01:33:23.967Z,83.73
2022-10-22T01:35:56.046Z,83.38
2022-10-22T01:38:28.210Z,83.29
2022-10-22T01:40:59.958Z,83.38
2022-10-22T01:43:30.983Z,83.37
2022-10-22T01:46:04.760Z,83.52
2022-10-22T01:48:47.106Z,83.23
2022-10-22T01:51:31.332Z,83.03
2022-10-22T01:54:10.419Z,83.11
2022-10-22T01:56:51.536Z,83.15
2022-10-22T01:59:33.947Z,83.51
2022-10-22T02:02:13.887Z,83.36
2022-10-22T02:04:50.493Z,83.43
2022-10-22T02:07:28.059Z,83.35
2022-10-22T02:10:00.882Z,83.14
2022-10-22T02:12:34.986Z,83.16
2022-10-22T02:15:08.724Z,83.39
2022-10-22T02:17:41.049Z,83.73
2022-10-22T02:20:17.144Z,83.86
2022-10-22T02:22:48.484Z,84.02
2022-10-22T02:25:22.409Z,83.83
2022-10-22T02:28:03.823Z,83.57
2022-10-22T02:30:37.146Z,83.42
2022-10-22T02:33:14.231Z,83.43
2022-10-22T02:35:46.857Z,83.50
2022-10-22T02:38:18.709Z,83.31
2022-10-22T02:40:49.903Z,83.35
2022-10-22T02:43:22.052Z,83.43
2022-10-22T02:45:53.239Z,83.29
2022-10-22T02:48:24.136Z,83.25
2022-10-22T02:50:54.988Z,83.61
2022-10-22T02:53:24.428Z,83.69
2022-10-22T02:55:55.487Z,83.94
2022-10-22T02:58:26.408Z,83.94
2022-10-22T03:00:57.299Z,83.90
2022-10-22T03:03:28.282Z,83.98
2022-10-22T03:05:57.722Z,84.11
2022-10-22T03:08:28.792Z,84.10
2022-10-22T03:10:59.925Z,84.07
2022-10-22T03:13:29.140Z,84.00
2022-10-22T03:16:00.283Z,83.72
2022-10-22T03:18:29.605Z,83.83
2022-10-22T03:21:11.750Z,84.01
2022-10-22T03:23:44.031Z,83.88
2022-10-22T03:26:16.441Z,83.89
2022-10-22T03:28:48.554Z,83.99
2022-10-22T03:31:19.431Z,84.15
2022-10-22T03:33:50.655Z,84.16
2022-10-22T03:36:20.242Z,84.15
2022-10-22T03:38:51.301Z,84.21
2022-10-22T03:41:22.183Z,84.24
2022-10-22T03:43:53.230Z,84.19
2022-10-22T03:46:24.162Z,84.40
2022-10-22T03:48:53.520Z,84.43
2022-10-22T03:51:24.434Z,84.62
2022-10-22T03:53:55.370Z,84.50
2022-10-22T03:56:25.068Z,84.60
2022-10-22T03:58:58.821Z,84.67
2022-10-22T04:01:31.239Z,84.79
2022-10-22T04:04:02.147Z,84.67
2022-10-22T04:06:31.547Z,84.48
2022-10-22T04:09:02.713Z,84.55
2022-10-22T04:11:34.000Z,84.45
2022-10-22T04:14:03.332Z,84.49
2022-10-22T04:16:34.321Z,84.49
2022-10-22T04:19:05.411Z,84.37
2022-10-22T04:21:40.216Z,84.31
2022-10-22T04:24:11.136Z,84.53
2022-10-22T04:26:42.352Z,84.55
2022-10-22T04:29:15.915Z,84.67
2022-10-22T04:31:47.460Z,84.74
2022-10-22T04:34:18.555Z,84.75
2022-10-22T04:36:49.708Z,84.51
2022-10-22T04:39:19.220Z,84.26
2022-10-22T04:41:50.210Z,84.38
2022-10-22T04:44:20.968Z,84.28
2022-10-22T04:46:52.017Z,84.27
2022-10-22T04:49:22.748Z,84.33
2022-10-22T04:51:54.743Z,84.31
2022-10-22T04:54:29.060Z,84.31
2022-10-22T04:57:04.442Z,84.46
2022-10-22T04:59:33.828Z,84.51
2022-10-22T05:02:04.778Z,84.19
2022-10-22T05:04:38.619Z,84.00
2022-10-22T05:07:07.855Z,84.00
2022-10-22T05:09:39.157Z,84.05
2022-10-22T05:12:10.271Z,84.49
2022-10-22T05:14:44.034Z,84.51
2022-10-22T05:17:15.667Z,84.47
2022-10-22T05:19:45.008Z,84.58
2022-10-22T05:22:15.935Z,84.49
2022-10-22T05:24:45.423Z,84.51
2022-10-22T05:27:16.153Z,84.38
2022-10-22T05:29:45.622Z,84.18
2022-10-22T05:32:16.634Z,84.10
2022-10-22T05:34:46.044Z,84.13
2022-10-22T05:37:16.981Z,83.97
2022-10-22T05:39:46.438Z,83.96
2022-10-22T05:42:17.392Z,83.85
2022-10-22T05:44:49.222Z,83.81
2022-10-22T05:47:20.024Z,83.66
2022-10-22T05:49:51.446Z,83.60
2022-10-22T05:52:22.309Z,83.58
2022-10-22T05:54:53.276Z,83.38
2022-10-22T05:57:22.550Z,83.43
2022-10-22T05:59:53.456Z,83.75
2022-10-22T06:02:24.418Z,84.06
2022-10-22T06:04:55.249Z,84.19
2022-10-22T06:07:26.255Z,84.27
2022-10-22T06:09:55.952Z,84.18
2022-10-22T06:12:27.096Z,84.07
2022-10-22T06:14:56.544Z,84.20
2022-10-22T06:17:27.532Z,84.37
2022-10-22T06:19:58.708Z,84.41
2022-10-22T06:22:29.885Z,84.36
2022-10-22T06:25:01.132Z,84.42
2022-10-22T06:27:32.163Z,84.54
2022-10-22T06:30:03.272Z,84.66
2022-10-22T06:32:34.500Z,84.68
2022-10-22T06:35:05.891Z,84.67
2022-10-22T06:37:36.970Z,84.72
2022-10-22T06:40:11.031Z,84.52
2022-10-22T06:42:42.163Z,84.14
2022-10-22T06:45:14.188Z,84.06
2022-10-22T06:47:45.109Z,83.82
2022-10-22T06:50:14.433Z,84.09
2022-10-22T06:52:45.140Z,84.13
2022-10-22T06:55:14.528Z,84.19
2022-10-22T06:57:45.461Z,84.42
2022-10-22T07:00:17.336Z,84.57
2022-10-22T07:02:57.653Z,84.59
2022-10-22T07:05:34.722Z,84.51
2022-10-22T07:08:05.828Z,84.76
2022-10-22T07:10:36.683Z,84.93
2022-10-22T07:13:06.052Z,84.89
2022-10-22T07:15:36.854Z,84.88
2022-10-22T07:18:06.315Z,84.99
2022-10-22T07:20:37.034Z,85.16
2022-10-22T07:23:07.889Z,85.36
2022-10-22T07:25:38.748Z,85.30
2022-10-22T07:28:10.076Z,85.21
2022-10-22T07:30:42.195Z,85.19
2022-10-22T07:33:13.910Z,85.19
2022-10-22T07:35:45.713Z,85.19
2022-10-22T07:38:16.612Z,85.11
2022-10-22T07:40:47.542Z,84.94
2022-10-22T07:43:18.839Z,84.90
2022-10-22T07:45:48.628Z,85.03
2022-10-22T07:48:19.880Z,85.18
2022-10-22T07:50:51.812Z,85.30
2022-10-22T07:53:22.986Z,85.21
2022-10-22T07:55:54.658Z,85.04
2022-10-22T07:58:25.676Z,85.09
2022-10-22T08:00:57.563Z,85.09
2022-10-22T08:03:29.250Z,84.85
2022-10-22T08:06:01.123Z,84.75
2022-10-22T08:08:32.419Z,84.73
2022-10-22T08:11:04.720Z,84.73
2022-10-22T08:13:35.616Z,84.80
2022-10-22T08:16:07.230Z,85.08
2022-10-22T08:18:38.715Z,85.36
2022-10-22T08:21:09.879Z,85.34
2022-10-22T08:23:40.931Z,85.19
2022-10-22T08:26:12.301Z,85.06
2022-10-22T08:28:43.419Z,85.13
2022-10-22T08:31:14.453Z,85.18
2022-10-22T08:33:45.517Z,85.12
2022-10-22T08:36:16.513Z,85.21
2022-10-22T08:38:47.487Z,85.39
2022-10-22T08:41:17.624Z,85.49
2022-10-22T08:44:12.000Z,85.42
2022-10-22T08:47:10.853Z,85.38
2022-10-22T08:49:44.260Z,85.40
2022-10-22T08:52:17.934Z,85.35
2022-10-22T08:54:54.975Z,85.33
2022-10-22T08:57:52.448Z,85.52
2022-10-22T09:00:32.057Z,85.24
2022-10-22T09:03:14.731Z,85.04
2022-10-22T09:05:56.921Z,84.79
2022-10-22T09:08:28.248Z,84.52
2022-10-22T09:11:08.121Z,84.24
2022-10-22T09:13:39.886Z,84.09
2022-10-22T09:16:20.025Z,83.72
2022-10-22T09:19:02.937Z,83.56
2022-10-22T09:21:44.902Z,83.80
2022-10-22T09:24:23.288Z,83.90
2022-10-22T09:26:54.559Z,83.82
2022-10-22T09:29:32.731Z,83.85
2022-10-22T09:32:03.807Z,84.01
2022-10-22T09:34:46.700Z,84.04
2022-10-22T09:37:20.891Z,84.06
2022-10-22T09:39:55.048Z,84.12
2022-10-22T09:42:26.264Z,84.08
2022-10-22T09:45:00.490Z,84.24
2022-10-22T09:48:00.416Z,84.23
2022-10-22T09:50:40.099Z,84.27
2022-10-22T09:53:19.682Z,84.24
2022-10-22T09:58:42.299Z,84.19
2022-10-22T10:01:21.087Z,84.03
2022-10-22T10:03:52.964Z,84.01
2022-10-22T10:06:24.957Z,84.24
2022-10-22T10:08:57.307Z,83.98
2022-10-22T10:11:37.644Z,83.91
2022-10-22T10:14:20.600Z,83.68
2022-10-22T10:17:00.106Z,83.21
2022-10-22T10:19:43.383Z,83.27
2022-10-22T10:22:19.543Z,83.29
2022-10-22T10:25:13.977Z,82.79
2022-10-22T10:27:50.822Z,82.91
2022-10-22T10:30:25.052Z,82.49
2022-10-22T10:33:12.298Z,82.30
2022-10-22T10:35:55.361Z,82.63
2022-10-22T10:38:40.472Z,82.37
2022-10-22T10:41:20.066Z,82.18
2022-10-22T10:44:02.775Z,81.86
2022-10-22T10:46:43.775Z,81.63
2022-10-22T10:49:20.827Z,81.35
2022-10-22T10:51:59.695Z,81.61
2022-10-22T10:57:20.550Z,81.51
2022-10-22T11:00:01.400Z,81.96
2022-10-22T11:05:39.269Z,82.36
2022-10-22T11:08:15.788Z,82.53
2022-10-22T11:10:51.187Z,82.51
2022-10-22T11:13:28.120Z,82.65
2022-10-22T11:16:04.969Z,82.83
2022-10-22T11:18:42.378Z,82.76
2022-10-22T11:21:23.690Z,82.92
2022-10-22T11:24:02.164Z,82.95
2022-10-22T11:26:42.913Z,82.89
2022-10-22T11:29:18.720Z,82.81
2022-10-22T11:31:50.437Z,82.84
2022-10-22T11:34:33.734Z,82.76
2022-10-22T11:37:06.271Z,82.77
2022-10-22T11:39:42.509Z,82.90
2022-10-22T11:42:19.877Z,82.98
2022-10-22T11:47:29.650Z,82.98
2022-10-22T11:50:12.519Z,82.99
2022-10-22T11:52:55.141Z,83.09
2022-10-22T11:55:45.967Z,83.14
2022-10-22T11:58:36.209Z,83.05
2022-10-22T12:01:29.556Z,83.07
2022-10-22T12:04:23.425Z,82.91
2022-10-22T12:07:29.869Z,82.68
2022-10-22T12:10:01.532Z,82.72
2022-10-22T12:12:39.910Z,82.72
2022-10-22T12:15:27.680Z,82.83
2022-10-22T12:18:06.558Z,82.98
2022-10-22T12:20:37.455Z,83.18
2022-10-22T12:23:10.319Z,83.25
2022-10-22T12:25:41.302Z,83.20
2022-10-22T12:28:16.201Z,83.09
2022-10-22T12:30:48.233Z,83.10
2022-10-22T12:33:25.624Z,83.15
2022-10-22T12:35:58.828Z,82.91
2022-10-22T12:38:29.865Z,82.91
2022-10-22T12:41:01.108Z,82.74
2022-10-22T12:43:33.600Z,82.42
2022-10-22T12:46:04.523Z,82.50
2022-10-22T12:48:41.311Z,82.56
2022-10-22T12:51:20.097Z,82.52
2022-10-22T12:53:54.455Z,82.10
2022-10-22T12:56:27.830Z,82.05
2022-10-22T12:59:02.927Z,81.81
2022-10-22T13:01:37.981Z,82.21
2022-10-22T13:04:19.824Z,82.43
2022-10-22T13:06:52.347Z,82.33
2022-10-22T13:09:27.537Z,82.32
2022-10-22T13:12:05.415Z,82.38
2022-10-22T13:14:38.600Z,82.48
2022-10-22T13:17:12.869Z,82.67
2022-10-22T13:19:47.530Z,82.85
2022-10-22T13:22:33.961Z,83.07
2022-10-22T13:25:22.877Z,83.24
2022-10-22T13:27:56.784Z,83.45
2022-10-22T13:30:29.171Z,83.67
2022-10-22T13:33:01.866Z,83.87
2022-10-22T13:35:36.172Z,84.00
2022-10-22T13:38:16.626Z,84.14
2022-10-22T13:40:47.754Z,84.26
2022-10-22T13:43:19.272Z,84.28
2022-10-22T13:45:54.341Z,84.44
2022-10-22T13:48:27.392Z,84.41
2022-10-22T13:50:58.541Z,84.35
2022-10-22T13:53:31.466Z,84.44
2022-10-22T13:56:02.586Z,84.32
2022-10-22T13:58:31.922Z,84.35
2022-10-22T14:01:08.747Z,84.43
2022-10-22T14:03:40.509Z,84.28
2022-10-22T14:06:15.578Z,84.10
2022-10-22T14:08:50.731Z,83.78
2022-10-22T14:11:21.727Z,83.51
2022-10-22T14:13:52.921Z,83.24
2022-10-22T14:16:24.317Z,83.01
2022-10-22T14:18:56.505Z,83.17
2022-10-22T14:21:29.999Z,83.10
2022-10-22T14:24:01.050Z,83.09
2022-10-22T14:26:35.093Z,82.98
2022-10-22T14:29:10.697Z,82.92
2022-10-22T14:31:44.710Z,82.70
2022-10-22T14:34:17.528Z,82.48
2022-10-22T14:36:48.535Z,82.27
2022-10-22T14:39:21.591Z,82.19
2022-10-22T14:41:52.736Z,82.07
2022-10-22T14:44:24.370Z,81.88
2022-10-22T14:46:56.324Z,81.88
2022-10-22T14:49:27.364Z,81.75
2022-10-22T14:51:58.191Z,81.45
2022-10-22T14:54:29.389Z,81.16
2022-10-22T14:57:00.492Z,80.84
2022-10-22T14:59:31.903Z,80.55
2022-10-22T15:02:03.034Z,80.46
2022-10-22T15:04:34.212Z,80.50
2022-10-22T15:07:05.200Z,80.45
2022-10-22T15:09:36.186Z,80.47
2022-10-22T15:12:07.662Z,80.63
2022-10-22T15:14:38.583Z,80.65
2022-10-22T15:17:09.737Z,80.71
2022-10-22T15:19:40.654Z,80.82
2022-10-22T15:22:11.828Z,80.81
2022-10-22T15:24:44.694Z,80.93
2022-10-22T15:27:15.676Z,81.20
2022-10-22T15:29:46.558Z,81.23
2022-10-22T15:32:17.711Z,81.11
2022-10-22T15:34:49.002Z,81.33
2022-10-22T15:37:20.151Z,81.56
2022-10-22T15:39:51.252Z,82.06
2022-10-22T15:42:23.332Z,82.15
2022-10-22T15:45:00.191Z,82.80
2022-10-22T15:47:31.198Z,82.81
2022-10-22T15:50:02.275Z,82.78
2022-10-22T15:52:33.700Z,82.96
2022-10-22T15:55:07.075Z,82.85
2022-10-22T15:57:38.407Z,83.06
2022-10-22T16:00:11.593Z,83.46
2022-10-22T16:02:42.789Z,83.55
2022-10-22T16:05:14.107Z,83.73
2022-10-22T16:07:45.169Z,84.04
2022-10-22T16:10:17.094Z,84.16
2022-10-22T16:12:47.846Z,84.17
2022-10-22T16:15:18.864Z,84.07
2022-10-22T16:17:48.114Z,84.16
2022-10-22T16:20:19.318Z,84.38
2022-10-22T16:22:53.092Z,84.39
2022-10-22T16:25:24.712Z,84.23
2022-10-22T16:27:55.990Z,84.37
2022-10-22T16:30:26.983Z,84.21
2022-10-22T16:32:58.136Z,84.08
2022-10-22T16:35:29.046Z,84.14
2022-10-22T16:38:00.162Z,84.20
2022-10-22T16:40:29.662Z,84.46
2022-10-22T16:43:00.704Z,84.49
2022-10-22T16:45:31.593Z,84.60
2022-10-22T16:48:00.848Z,84.89
2022-10-22T16:50:31.587Z,85.05
2022-10-22T16:53:02.475Z,85.32
2022-10-22T16:55:36.435Z,85.41
2022-10-22T16:58:08.048Z,85.46
2022-10-22T17:00:39.336Z,85.65
2022-10-22T17:03:12.342Z,85.62
2022-10-22T17:05:43.340Z,85.79
2022-10-22T17:08:14.682Z,85.85
2022-10-22T17:10:46.082Z,85.80
2022-10-22T17:13:17.014Z,85.90
2022-10-22T17:15:46.428Z,86.06
2022-10-22T17:18:17.810Z,86.05
2022-10-22T17:20:49.261Z,86.18
2022-10-22T17:23:20.191Z,86.20
2022-10-22T17:25:49.847Z,86.33
2022-10-22T17:28:19.285Z,86.49
2022-10-22T17:30:51.030Z,86.69
2022-10-22T17:33:21.874Z,86.89
2022-10-22T17:35:52.821Z,87.07
2022-10-22T17:38:24.149Z,87.13
2022-10-22T17:40:55.195Z,87.22
2022-10-22T17:43:26.213Z,87.19
2022-10-22T17:46:05.659Z,87.20
2022-10-22T17:48:36.966Z,87.20
2022-10-22T17:51:11.395Z,87.19
2022-10-22T17:53:45.789Z,87.22
2022-10-22T17:56:19.462Z,87.24
2022-10-22T17:58:51.139Z,87.32
2022-10-22T18:01:25.382Z,87.27
2022-10-22T18:03:59.885Z,87.34
2022-10-22T18:06:31.578Z,87.32
2022-10-22T18:09:04.970Z,87.31
2022-10-22T18:11:37.842Z,87.39
2022-10-22T18:14:09.429Z,87.46
2022-10-22T18:16:40.511Z,87.50
2022-10-22T18:19:12.225Z,87.50
2022-10-22T18:21:43.332Z,87.54
2022-10-22T18:24:16.135Z,87.48
2022-10-22T18:26:47.325Z,87.59
2022-10-22T18:29:20.455Z,87.71
2022-10-22T18:31:52.581Z,87.63
2022-10-22T18:34:24.080Z,87.66
2022-10-22T18:36:55.498Z,87.62
2022-10-22T18:39:24.807Z,87.66
2022-10-22T18:41:55.633Z,87.77
2022-10-22T18:44:26.385Z,87.74
2022-10-22T18:46:57.404Z,87.72
2022-10-22T18:49:28.465Z,87.72
2022-10-22T18:51:59.681Z,87.75
2022-10-22T18:54:29.069Z,87.72
2022-10-22T18:57:02.831Z,87.78
2022-10-22T18:59:34.315Z,87.85
2022-10-22T19:02:05.311Z,87.79
2022-10-22T19:04:37.081Z,87.63
2022-10-22T19:09:40.536Z,87.68
2022-10-22T19:12:15.058Z,87.72
2022-10-22T19:14:46.062Z,87.62
2022-10-22T19:17:17.370Z,87.60
2022-10-22T19:19:46.810Z,87.70
2022-10-22T19:22:17.781Z,87.62
2022-10-22T19:24:49.210Z,87.83
2022-10-22T19:27:20.442Z,87.85
2022-10-22T19:29:51.512Z,87.83
2022-10-22T19:32:22.815Z,88.03
2022-10-22T19:34:53.941Z,88.02
2022-10-22T19:37:23.355Z,88.01
2022-10-22T19:39:54.557Z,87.95
2022-10-22T19:42:25.732Z,88.07
2022-10-22T19:44:55.103Z,88.05
2022-10-22T19:47:26.407Z,88.07
2022-10-22T19:49:57.308Z,88.13
2022-10-22T19:52:28.545Z,88.15
2022-10-22T19:55:00.072Z,88.10
2022-10-22T19:57:31.162Z,88.18
2022-10-22T20:00:02.069Z,88.28
2022-10-22T20:02:33.495Z,88.21
2022-10-22T20:05:04.772Z,88.38
2022-10-22T20:07:36.214Z,88.40
2022-10-22T20:10:08.570Z,88.31
2022-10-22T20:12:39.333Z,88.22
2022-10-22T20:15:11.933Z,88.24
2022-10-22T20:17:42.923Z,88.27
2022-10-22T20:20:14.212Z,88.26
2022-10-22T20:22:45.032Z,88.21
2022-10-22T20:25:16.299Z,88.23
2022-10-22T20:27:47.353Z,88.10
2022-10-22T20:30:19.628Z,88.00
2022-10-22T20:32:50.699Z,87.98
2022-10-22T20:35:21.651Z,88.04
2022-10-22T20:37:53.142Z,88.02
2022-10-22T20:40:26.670Z,88.01
2022-10-22T20:42:57.635Z,88.14
2022-10-22T20:45:29.412Z,88.17
2022-10-22T20:48:03.465Z,88.09
2022-10-22T20:50:34.444Z,88.09
2022-10-22T20:53:03.757Z,88.00
2022-10-22T20:55:34.585Z,88.02
2022-10-22T20:58:05.602Z,88.02
2022-10-22T21:00:39.287Z,87.98
2022-10-22T21:03:10.116Z,88.14
2022-10-22T21:05:39.569Z,88.04
2022-10-22T21:08:17.261Z,88.09
2022-10-22T21:10:49.203Z,88.14
2022-10-22T21:13:20.129Z,88.09
2022-10-22T21:15:49.766Z,88.10
2022-10-22T21:18:20.796Z,88.12
2022-10-22T21:20:51.818Z,88.10
2022-10-22T21:23:23.194Z,88.05
2022-10-22T21:25:58.581Z,88.08
2022-10-22T21:31:01.370Z,87.97
2022-10-22T21:33:32.698Z,87.97
2022-10-22T21:36:03.600Z,88.06
2022-10-22T21:38:32.958Z,88.17
2022-10-22T21:41:07.269Z,88.06
2022-10-22T21:43:39.316Z,88.06
2022-10-22T21:46:12.325Z,88.30
2022-10-22T21:48:43.692Z,88.14
2022-10-22T21:51:16.688Z,88.26
2022-10-22T21:53:47.734Z,88.32
2022-10-22T21:56:21.115Z,88.31
2022-10-22T21:58:52.016Z,88.32
2022-10-22T22:01:22.998Z,88.24
2022-10-22T22:03:54.678Z,88.17
2022-10-22T22:06:30.827Z,88.22
2022-10-22T22:09:05.745Z,88.16
2022-10-22T22:11:36.774Z,88.14
2022-10-22T22:14:06.139Z,88.28
2022-10-22T22:16:37.269Z,88.43
2022-10-22T22:19:10.837Z,88.39
2022-10-22T22:21:42.763Z,88.37
2022-10-22T22:24:15.327Z,88.46
2022-10-22T22:26:46.630Z,88.38
2022-10-22T22:29:15.822Z,88.49
2022-10-22T22:31:47.158Z,88.50
2022-10-22T22:34:19.030Z,88.63
2022-10-22T22:36:50.439Z,88.65
2022-10-22T22:39:23.670Z,88.63
2022-10-22T22:41:54.572Z,88.64
2022-10-22T22:44:25.500Z,88.62
2022-10-22T22:46:56.431Z,88.48
2022-10-22T22:49:25.767Z,88.52
2022-10-22T22:51:55.399Z,88.57
2022-10-22T22:54:26.317Z,88.61
2022-10-22T22:56:58.835Z,88.64
2022-10-22T22:59:30.126Z,88.65
2022-10-22T23:02:01.326Z,88.57
2022-10-22T23:04:32.833Z,88.50
2022-10-22T23:07:03.702Z,88.55
2022-10-22T23:09:34.854Z,88.58
2022-10-22T23:12:06.378Z,88.48
2022-10-22T23:14:37.464Z,88.58
2022-10-22T23:17:06.941Z,88.54
2022-10-22T23:19:37.764Z,88.74
2022-10-22T23:22:08.912Z,88.75
2022-10-22T23:24:40.487Z,88.74
2022-10-22T23:27:12.600Z,88.77
2022-10-22T23:29:43.795Z,88.79
2022-10-22T23:32:14.263Z,88.82
2022-10-22T23:34:45.228Z,88.88
2022-10-22T23:37:16.256Z,88.93
2022-10-22T23:39:47.147Z,88.85
2022-10-22T23:42:16.732Z,88.96
2022-10-22T23:44:47.607Z,89.03
2022-10-22T23:47:18.570Z,89.06
2022-10-22T23:49:49.661Z,89.09
2022-10-22T23:52:20.665Z,89.16
2022-10-22T23:54:50.734Z,89.15
2022-10-22T23:57:21.523Z,89.29
2022-10-22T23:59:50.958Z,89.40
